sensor_id;sensor_type;location;lat;lon;timestamp;pressure;altitude;pressure_sealevel;temperature;humidity
77723;BME280;67811;42.656;23.394;2023-04-24T00:02:04;94827.53;;;9.59;57.82
77723;BME280;67811;42.656;23.394;2023-04-24T00:04:30;94816.53;;;9.41;57.81
77723;BME280;67811;42.656;23.394;2023-04-24T00:06:55;94815.25;;;9.37;58.64
77723;BME280;67811;42.656;23.394;2023-04-24T00:09:20;94812.06;;;9.27;58.32
77723;BME280;67811;42.656;23.394;2023-04-24T00:11:45;94803.94;;;9.28;58.60
77723;BME280;67811;42.656;23.394;2023-04-24T00:14:11;94803.94;;;9.28;59.01
77723;BME280;67811;42.656;23.394;2023-04-24T00:16:36;94804.31;;;9.25;58.88
77723;BME280;67811;42.656;23.394;2023-04-24T00:19:02;94803.59;;;9.31;59.21
77723;BME280;67811;42.656;23.394;2023-04-24T00:21:27;94797.69;;;9.29;59.10
77723;BME280;67811;42.656;23.394;2023-04-24T00:23:52;94787.00;;;9.37;58.92
77723;BME280;67811;42.656;23.394;2023-04-24T00:26:18;94786.53;;;9.34;59.47
77723;BME280;67811;42.656;23.394;2023-04-24T00:28:43;94792.47;;;9.21;60.16
77723;BME280;67811;42.656;23.394;2023-04-24T00:31:09;94796.41;;;9.25;60.00
77723;BME280;67811;42.656;23.394;2023-04-24T00:33:34;94796.47;;;9.17;60.38
77723;BME280;67811;42.656;23.394;2023-04-24T00:35:59;94786.63;;;9.11;60.79
77723;BME280;67811;42.656;23.394;2023-04-24T00:38:25;94792.38;;;9.14;60.75
77723;BME280;67811;42.656;23.394;2023-04-24T00:40:50;94792.56;;;8.98;61.79
77723;BME280;67811;42.656;23.394;2023-04-24T00:43:16;94785.84;;;8.95;61.92
77723;BME280;67811;42.656;23.394;2023-04-24T00:45:42;94787.00;;;8.93;62.21
77723;BME280;67811;42.656;23.394;2023-04-24T00:48:08;94782.47;;;8.87;62.54
77723;BME280;67811;42.656;23.394;2023-04-24T00:50:35;94785.38;;;8.92;62.33
77723;BME280;67811;42.656;23.394;2023-04-24T00:53:01;94782.19;;;8.96;62.65
77723;BME280;67811;42.656;23.394;2023-04-24T00:55:26;94791.38;;;9.01;62.81
77723;BME280;67811;42.656;23.394;2023-04-24T00:57:52;94787.91;;;9.00;62.52
77723;BME280;67811;42.656;23.394;2023-04-24T01:00:18;94792.66;;;9.05;62.42
77723;BME280;67811;42.656;23.394;2023-04-24T01:02:44;94787.84;;;9.08;61.82
77723;BME280;67811;42.656;23.394;2023-04-24T01:05:10;94791.38;;;9.15;62.30
77723;BME280;67811;42.656;23.394;2023-04-24T01:07:35;94798.56;;;9.21;62.43
77723;BME280;67811;42.656;23.394;2023-04-24T01:10:02;94794.75;;;9.24;62.53
77723;BME280;67811;42.656;23.394;2023-04-24T01:12:27;94795.50;;;9.18;62.96
77723;BME280;67811;42.656;23.394;2023-04-24T01:14:52;94798.22;;;9.24;63.08
77723;BME280;67811;42.656;23.394;2023-04-24T01:17:18;94787.47;;;9.26;62.54
77723;BME280;67811;42.656;23.394;2023-04-24T01:19:43;94776.25;;;9.24;62.19
77723;BME280;67811;42.656;23.394;2023-04-24T01:22:11;94781.81;;;9.29;62.83
77723;BME280;67811;42.656;23.394;2023-04-24T01:24:36;94777.91;;;9.25;62.82
77723;BME280;67811;42.656;23.394;2023-04-24T01:27:01;94778.34;;;9.29;63.57
77723;BME280;67811;42.656;23.394;2023-04-24T01:29:27;94769.50;;;9.36;63.31
77723;BME280;67811;42.656;23.394;2023-04-24T01:31:53;94769.41;;;9.15;63.67
77723;BME280;67811;42.656;23.394;2023-04-24T01:34:20;94773.50;;;9.17;64.53
77723;BME280;67811;42.656;23.394;2023-04-24T01:36:45;94762.56;;;9.06;64.93
77723;BME280;67811;42.656;23.394;2023-04-24T01:39:11;94755.66;;;9.05;64.13
77723;BME280;67811;42.656;23.394;2023-04-24T01:41:36;94761.50;;;8.85;64.81
77723;BME280;67811;42.656;23.394;2023-04-24T01:44:02;94752.56;;;8.86;64.62
77723;BME280;67811;42.656;23.394;2023-04-24T01:46:27;94746.84;;;8.97;64.57
77723;BME280;67811;42.656;23.394;2023-04-24T01:48:53;94752.03;;;8.76;65.01
77723;BME280;67811;42.656;23.394;2023-04-24T01:51:18;94752.50;;;8.80;65.05
77723;BME280;67811;42.656;23.394;2023-04-24T01:53:44;94757.56;;;8.66;66.44
77723;BME280;67811;42.656;23.394;2023-04-24T01:56:09;94749.44;;;8.68;66.49
77723;BME280;67811;42.656;23.394;2023-04-24T01:58:35;94744.53;;;8.65;66.27
77723;BME280;67811;42.656;23.394;2023-04-24T02:01:01;94746.56;;;8.63;65.79
77723;BME280;67811;42.656;23.394;2023-04-24T02:03:26;94747.53;;;8.62;66.61
77723;BME280;67811;42.656;23.394;2023-04-24T02:05:51;94741.72;;;8.66;66.75
77723;BME280;67811;42.656;23.394;2023-04-24T02:08:17;94734.88;;;8.72;66.04
77723;BME280;67811;42.656;23.394;2023-04-24T02:10:42;94741.28;;;8.63;67.64
77723;BME280;67811;42.656;23.394;2023-04-24T02:13:07;94752.19;;;8.60;67.75
77723;BME280;67811;42.656;23.394;2023-04-24T02:15:33;94742.53;;;8.67;66.92
77723;BME280;67811;42.656;23.394;2023-04-24T02:17:58;94737.91;;;8.69;67.15
77723;BME280;67811;42.656;23.394;2023-04-24T02:20:23;94745.09;;;8.75;66.48
77723;BME280;67811;42.656;23.394;2023-04-24T02:22:49;94740.09;;;8.65;67.05
77723;BME280;67811;42.656;23.394;2023-04-24T02:25:14;94734.44;;;8.68;66.84
77723;BME280;67811;42.656;23.394;2023-04-24T02:27:39;94736.81;;;8.63;67.41
77723;BME280;67811;42.656;23.394;2023-04-24T02:30:05;94740.50;;;8.39;67.87
77723;BME280;67811;42.656;23.394;2023-04-24T02:32:31;94743.31;;;8.38;68.04
77723;BME280;67811;42.656;23.394;2023-04-24T02:34:56;94739.50;;;8.40;67.87
77723;BME280;67811;42.656;23.394;2023-04-24T02:37:22;94743.50;;;8.36;67.92
77723;BME280;67811;42.656;23.394;2023-04-24T02:39:47;94733.69;;;8.22;68.78
77723;BME280;67811;42.656;23.394;2023-04-24T02:42:12;94731.25;;;8.21;68.16
77723;BME280;67811;42.656;23.394;2023-04-24T02:44:37;94728.72;;;8.27;68.31
77723;BME280;67811;42.656;23.394;2023-04-24T02:47:03;94722.91;;;8.32;67.90
77723;BME280;67811;42.656;23.394;2023-04-24T02:49:28;94712.34;;;8.32;67.57
77723;BME280;67811;42.656;23.394;2023-04-24T02:51:53;94713.41;;;8.23;68.03
77723;BME280;67811;42.656;23.394;2023-04-24T02:54:19;94716.53;;;8.26;68.01
77723;BME280;67811;42.656;23.394;2023-04-24T02:56:44;94717.94;;;8.14;68.26
77723;BME280;67811;42.656;23.394;2023-04-24T02:59:09;94720.03;;;8.04;68.70
77723;BME280;67811;42.656;23.394;2023-04-24T03:01:35;94714.03;;;8.10;68.33
77723;BME280;67811;42.656;23.394;2023-04-24T03:04:00;94714.50;;;8.13;68.60
77723;BME280;67811;42.656;23.394;2023-04-24T03:06:25;94721.03;;;8.17;68.77
77723;BME280;67811;42.656;23.394;2023-04-24T03:08:51;94723.88;;;8.16;68.98
77723;BME280;67811;42.656;23.394;2023-04-24T03:11:16;94722.56;;;8.12;69.26
77723;BME280;67811;42.656;23.394;2023-04-24T03:13:41;94726.22;;;8.11;69.01
77723;BME280;67811;42.656;23.394;2023-04-24T03:16:06;94724.59;;;8.10;69.19
77723;BME280;67811;42.656;23.394;2023-04-24T03:18:32;94733.75;;;7.99;69.80
77723;BME280;67811;42.656;23.394;2023-04-24T03:20:57;94726.34;;;7.95;70.05
77723;BME280;67811;42.656;23.394;2023-04-24T03:23:22;94729.75;;;8.03;69.44
77723;BME280;67811;42.656;23.394;2023-04-24T03:25:47;94726.22;;;8.11;69.11
77723;BME280;67811;42.656;23.394;2023-04-24T03:28:14;94726.03;;;8.12;69.27
77723;BME280;67811;42.656;23.394;2023-04-24T03:30:39;94730.97;;;8.15;69.26
77723;BME280;67811;42.656;23.394;2023-04-24T03:33:05;94730.56;;;8.04;69.51
77723;BME280;67811;42.656;23.394;2023-04-24T03:35:30;94730.78;;;8.17;68.88
77723;BME280;67811;42.656;23.394;2023-04-24T03:37:56;94730.06;;;8.23;68.67
77723;BME280;67811;42.656;23.394;2023-04-24T03:40:21;94728.03;;;8.10;68.96
77723;BME280;67811;42.656;23.394;2023-04-24T03:42:46;94732.31;;;8.11;68.33
77723;BME280;67811;42.656;23.394;2023-04-24T03:45:11;94731.97;;;8.29;68.25
77723;BME280;67811;42.656;23.394;2023-04-24T03:47:37;94732.69;;;8.46;67.26
77723;BME280;67811;42.656;23.394;2023-04-24T03:50:02;94726.56;;;9.19;64.91
77723;BME280;67811;42.656;23.394;2023-04-24T03:52:27;94732.22;;;9.67;62.89
77723;BME280;67811;42.656;23.394;2023-04-24T03:54:53;94731.06;;;10.19;61.30
77723;BME280;67811;42.656;23.394;2023-04-24T03:57:18;94722.66;;;10.37;60.23
77723;BME280;67811;42.656;23.394;2023-04-24T03:59:43;94721.41;;;11.98;55.12
77723;BME280;67811;42.656;23.394;2023-04-24T04:02:09;94721.19;;;13.51;50.75
77723;BME280;67811;42.656;23.394;2023-04-24T04:04:34;94707.72;;;13.90;48.61
77723;BME280;67811;42.656;23.394;2023-04-24T04:06:59;94715.41;;;14.30;46.84
77723;BME280;67811;42.656;23.394;2023-04-24T04:09:25;94720.53;;;14.32;46.43
77723;BME280;67811;42.656;23.394;2023-04-24T04:11:50;94721.72;;;15.66;43.18
77723;BME280;67811;42.656;23.394;2023-04-24T04:14:15;94722.63;;;15.90;42.54
77723;BME280;67811;42.656;23.394;2023-04-24T04:16:41;94734.13;;;14.98;43.97
77723;BME280;67811;42.656;23.394;2023-04-24T04:19:06;94723.13;;;15.50;43.34
77723;BME280;67811;42.656;23.394;2023-04-24T04:21:31;94730.00;;;15.21;42.96
77723;BME280;67811;42.656;23.394;2023-04-24T04:23:57;94730.50;;;14.11;46.31
77723;BME280;67811;42.656;23.394;2023-04-24T04:26:22;94737.59;;;12.70;49.42
77723;BME280;67811;42.656;23.394;2023-04-24T04:28:47;94730.72;;;13.27;48.31
77723;BME280;67811;42.656;23.394;2023-04-24T04:31:13;94736.72;;;12.89;48.82
77723;BME280;67811;42.656;23.394;2023-04-24T04:33:38;94733.91;;;12.44;49.93
77723;BME280;67811;42.656;23.394;2023-04-24T04:36:03;94733.91;;;12.64;49.93
77723;BME280;67811;42.656;23.394;2023-04-24T04:38:29;94731.63;;;12.74;49.09
77723;BME280;67811;42.656;23.394;2023-04-24T04:40:54;94741.31;;;11.68;52.40
77723;BME280;67811;42.656;23.394;2023-04-24T04:43:20;94749.53;;;11.31;53.32
77723;BME280;67811;42.656;23.394;2023-04-24T04:45:45;94748.75;;;11.92;51.56
77723;BME280;67811;42.656;23.394;2023-04-24T04:48:10;94744.13;;;12.27;50.70
77723;BME280;67811;42.656;23.394;2023-04-24T04:50:35;94749.22;;;12.22;51.10
77723;BME280;67811;42.656;23.394;2023-04-24T04:53:01;94754.75;;;12.34;50.63
77723;BME280;67811;42.656;23.394;2023-04-24T04:55:26;94752.47;;;12.18;50.88
77723;BME280;67811;42.656;23.394;2023-04-24T04:57:52;94762.81;;;11.86;52.46
77723;BME280;67811;42.656;23.394;2023-04-24T05:00:17;94757.59;;;11.51;53.38
77723;BME280;67811;42.656;23.394;2023-04-24T05:02:43;94760.47;;;11.56;53.63
77723;BME280;67811;42.656;23.394;2023-04-24T05:05:09;94766.75;;;11.07;54.27
77723;BME280;67811;42.656;23.394;2023-04-24T05:07:34;94763.84;;;10.96;55.08
77723;BME280;67811;42.656;23.394;2023-04-24T05:10:00;94765.91;;;11.42;54.10
77723;BME280;67811;42.656;23.394;2023-04-24T05:12:25;94757.72;;;11.37;53.71
77723;BME280;67811;42.656;23.394;2023-04-24T05:14:50;94758.91;;;10.93;55.06
77723;BME280;67811;42.656;23.394;2023-04-24T05:17:16;94759.94;;;11.26;54.02
77723;BME280;67811;42.656;23.394;2023-04-24T05:19:42;94761.41;;;11.42;54.25
77723;BME280;67811;42.656;23.394;2023-04-24T05:22:08;94751.09;;;11.60;53.10
77723;BME280;67811;42.656;23.394;2023-04-24T05:24:34;94759.28;;;11.18;54.01
77723;BME280;67811;42.656;23.394;2023-04-24T05:26:59;94756.63;;;11.66;53.26
77723;BME280;67811;42.656;23.394;2023-04-24T05:29:25;94766.72;;;11.83;52.58
77723;BME280;67811;42.656;23.394;2023-04-24T05:31:50;94765.44;;;11.79;52.80
77723;BME280;67811;42.656;23.394;2023-04-24T05:34:16;94769.06;;;12.26;51.82
77723;BME280;67811;42.656;23.394;2023-04-24T05:36:41;94757.22;;;12.42;51.30
77723;BME280;67811;42.656;23.394;2023-04-24T05:39:06;94757.06;;;11.76;52.90
77723;BME280;67811;42.656;23.394;2023-04-24T05:41:31;94754.56;;;12.42;53.13
77723;BME280;67811;42.656;23.394;2023-04-24T05:43:57;94761.59;;;13.41;49.97
77723;BME280;67811;42.656;23.394;2023-04-24T05:46:22;94759.31;;;15.27;45.36
77723;BME280;67811;42.656;23.394;2023-04-24T05:48:47;94766.78;;;15.92;43.36
77723;BME280;67811;42.656;23.394;2023-04-24T05:51:12;94758.72;;;17.93;38.30
77723;BME280;67811;42.656;23.394;2023-04-24T05:53:38;94751.97;;;18.19;43.47
77723;BME280;67811;42.656;23.394;2023-04-24T05:56:03;94758.34;;;17.02;43.57
77723;BME280;67811;42.656;23.394;2023-04-24T05:58:28;94761.13;;;16.72;45.00
77723;BME280;67811;42.656;23.394;2023-04-24T06:00:54;94762.44;;;17.05;45.09
77723;BME280;67811;42.656;23.394;2023-04-24T06:03:19;94757.75;;;17.59;44.55
77723;BME280;67811;42.656;23.394;2023-04-24T06:05:44;94751.78;;;18.09;44.16
77723;BME280;67811;42.656;23.394;2023-04-24T06:08:10;94751.69;;;18.49;43.59
77723;BME280;67811;42.656;23.394;2023-04-24T06:10:35;94745.19;;;18.74;43.68
77723;BME280;67811;42.656;23.394;2023-04-24T06:13:00;94752.81;;;18.82;43.59
77723;BME280;67811;42.656;23.394;2023-04-24T06:15:30;94750.59;;;18.79;44.29
77723;BME280;67811;42.656;23.394;2023-04-24T06:17:56;94752.91;;;18.87;44.17
77723;BME280;67811;42.656;23.394;2023-04-24T06:20:21;94749.22;;;18.93;42.50
77723;BME280;67811;42.656;23.394;2023-04-24T06:22:47;94747.44;;;19.15;42.00
77723;BME280;67811;42.656;23.394;2023-04-24T06:25:12;94749.56;;;19.13;41.91
77723;BME280;67811;42.656;23.394;2023-04-24T06:27:38;94742.78;;;19.11;42.29
77723;BME280;67811;42.656;23.394;2023-04-24T06:30:03;94749.28;;;19.32;42.32
77723;BME280;67811;42.656;23.394;2023-04-24T06:32:28;94751.66;;;19.50;42.18
77723;BME280;67811;42.656;23.394;2023-04-24T06:34:54;94745.84;;;19.36;42.33
77723;BME280;67811;42.656;23.394;2023-04-24T06:37:22;94744.09;;;19.25;42.77
77723;BME280;67811;42.656;23.394;2023-04-24T06:39:47;94744.34;;;19.24;43.10
77723;BME280;67811;42.656;23.394;2023-04-24T06:42:13;94743.16;;;19.36;42.91
77723;BME280;67811;42.656;23.394;2023-04-24T06:44:38;94745.06;;;19.58;42.94
77723;BME280;67811;42.656;23.394;2023-04-24T06:47:03;94740.34;;;19.87;42.30
77723;BME280;67811;42.656;23.394;2023-04-24T06:49:29;94752.16;;;20.08;42.36
77723;BME280;67811;42.656;23.394;2023-04-24T06:51:54;94754.97;;;20.18;42.24
77723;BME280;67811;42.656;23.394;2023-04-24T06:54:19;94749.97;;;20.32;41.87
77723;BME280;67811;42.656;23.394;2023-04-24T06:56:45;94756.41;;;20.52;42.28
77723;BME280;67811;42.656;23.394;2023-04-24T06:59:10;94744.41;;;20.65;42.01
77723;BME280;67811;42.656;23.394;2023-04-24T07:01:35;94744.31;;;20.87;41.95
77723;BME280;67811;42.656;23.394;2023-04-24T07:04:00;94735.13;;;21.15;41.51
77723;BME280;67811;42.656;23.394;2023-04-24T07:06:26;94734.66;;;21.28;41.22
77723;BME280;67811;42.656;23.394;2023-04-24T07:08:51;94736.75;;;21.58;41.14
77723;BME280;67811;42.656;23.394;2023-04-24T07:11:16;94737.69;;;21.84;41.01
77723;BME280;67811;42.656;23.394;2023-04-24T07:13:41;94730.47;;;22.00;40.93
77723;BME280;67811;42.656;23.394;2023-04-24T07:16:08;94734.78;;;22.01;40.83
77723;BME280;67811;42.656;23.394;2023-04-24T07:18:33;94734.03;;;22.11;40.68
77723;BME280;67811;42.656;23.394;2023-04-24T07:20:58;94729.13;;;22.08;40.30
77723;BME280;67811;42.656;23.394;2023-04-24T07:23:23;94729.13;;;21.98;39.82
77723;BME280;67811;42.656;23.394;2023-04-24T07:25:49;94728.00;;;21.89;40.01
77723;BME280;67811;42.656;23.394;2023-04-24T07:28:14;94737.13;;;21.77;40.22
77723;BME280;67811;42.656;23.394;2023-04-24T07:30:39;94730.81;;;21.56;40.41
77723;BME280;67811;42.656;23.394;2023-04-24T07:33:05;94730.66;;;21.31;40.96
77723;BME280;67811;42.656;23.394;2023-04-24T07:35:30;94718.97;;;21.15;41.31
77723;BME280;67811;42.656;23.394;2023-04-24T07:37:55;94721.56;;;21.00;41.59
77723;BME280;67811;42.656;23.394;2023-04-24T07:40:21;94718.72;;;20.85;41.58
77723;BME280;67811;42.656;23.394;2023-04-24T07:42:47;94711.16;;;20.82;41.79
77723;BME280;67811;42.656;23.394;2023-04-24T07:45:12;94711.53;;;20.95;41.50
77723;BME280;67811;42.656;23.394;2023-04-24T07:47:37;94707.84;;;21.07;41.36
77723;BME280;67811;42.656;23.394;2023-04-24T07:50:03;94716.13;;;21.37;41.35
77723;BME280;67811;42.656;23.394;2023-04-24T07:52:28;94716.88;;;21.75;40.64
77723;BME280;67811;42.656;23.394;2023-04-24T07:54:54;94705.19;;;22.22;40.21
77723;BME280;67811;42.656;23.394;2023-04-24T07:57:20;94699.03;;;22.62;39.29
77723;BME280;67811;42.656;23.394;2023-04-24T07:59:45;94703.63;;;22.82;39.06
77723;BME280;67811;42.656;23.394;2023-04-24T08:02:10;94699.31;;;22.96;38.83
77723;BME280;67811;42.656;23.394;2023-04-24T08:04:35;94697.69;;;23.26;38.53
77723;BME280;67811;42.656;23.394;2023-04-24T08:07:01;94695.75;;;23.36;38.28
77723;BME280;67811;42.656;23.394;2023-04-24T08:09:26;94697.84;;;23.60;38.06
77723;BME280;67811;42.656;23.394;2023-04-24T08:11:51;94693.22;;;23.81;38.01
77723;BME280;67811;42.656;23.394;2023-04-24T08:14:17;94688.56;;;23.97;37.67
77723;BME280;67811;42.656;23.394;2023-04-24T08:16:42;94691.28;;;23.91;37.64
77723;BME280;67811;42.656;23.394;2023-04-24T08:19:08;94689.38;;;23.92;37.76
77723;BME280;67811;42.656;23.394;2023-04-24T08:21:33;94688.34;;;23.78;37.65
77723;BME280;67811;42.656;23.394;2023-04-24T08:23:58;94685.44;;;23.64;37.78
77723;BME280;67811;42.656;23.394;2023-04-24T08:26:24;94682.16;;;23.72;37.42
77723;BME280;67811;42.656;23.394;2023-04-24T08:28:49;94678.59;;;23.82;37.33
77723;BME280;67811;42.656;23.394;2023-04-24T08:31:14;94671.72;;;24.00;37.31
77723;BME280;67811;42.656;23.394;2023-04-24T08:33:40;94675.47;;;24.14;36.95
77723;BME280;67811;42.656;23.394;2023-04-24T08:36:06;94671.16;;;24.08;36.60
77723;BME280;67811;42.656;23.394;2023-04-24T08:38:31;94663.94;;;23.88;36.98
77723;BME280;67811;42.656;23.394;2023-04-24T08:40:58;94674.22;;;23.91;37.24
77723;BME280;67811;42.656;23.394;2023-04-24T08:43:24;94668.22;;;23.99;36.99
77723;BME280;67811;42.656;23.394;2023-04-24T08:45:50;94656.31;;;24.00;36.55
77723;BME280;67811;42.656;23.394;2023-04-24T08:48:16;94653.97;;;23.83;35.75
77723;BME280;67811;42.656;23.394;2023-04-24T08:50:42;94660.00;;;23.60;36.04
77723;BME280;67811;42.656;23.394;2023-04-24T08:53:08;94649.19;;;23.65;36.29
77723;BME280;67811;42.656;23.394;2023-04-24T08:55:34;94655.25;;;23.96;36.06
77723;BME280;67811;42.656;23.394;2023-04-24T08:58:01;94648.06;;;24.21;35.94
77723;BME280;67811;42.656;23.394;2023-04-24T09:00:27;94647.38;;;24.44;35.61
77723;BME280;67811;42.656;23.394;2023-04-24T09:02:53;94646.56;;;24.78;35.29
77723;BME280;67811;42.656;23.394;2023-04-24T09:05:20;94643.63;;;25.08;35.01
77723;BME280;67811;42.656;23.394;2023-04-24T09:07:55;94640.00;;;25.42;34.56
77723;BME280;67811;42.656;23.394;2023-04-24T09:10:23;94632.84;;;25.75;34.05
77723;BME280;67811;42.656;23.394;2023-04-24T09:12:50;94629.22;;;26.04;33.84
77723;BME280;67811;42.656;23.394;2023-04-24T09:15:16;94634.72;;;26.36;33.68
77723;BME280;67811;42.656;23.394;2023-04-24T09:17:41;94627.91;;;26.39;33.85
77723;BME280;67811;42.656;23.394;2023-04-24T09:20:07;94638.41;;;26.26;33.90
77723;BME280;67811;42.656;23.394;2023-04-24T09:22:33;94618.88;;;26.24;34.13
77723;BME280;67811;42.656;23.394;2023-04-24T09:25:06;94615.59;;;26.46;33.86
77723;BME280;67811;42.656;23.394;2023-04-24T09:27:33;94613.50;;;26.57;33.63
77723;BME280;67811;42.656;23.394;2023-04-24T09:29:58;94605.22;;;26.30;33.84
77723;BME280;67811;42.656;23.394;2023-04-24T09:32:25;94599.75;;;26.16;34.36
77723;BME280;67811;42.656;23.394;2023-04-24T09:35:05;94598.28;;;26.05;34.43
77723;BME280;67811;42.656;23.394;2023-04-24T09:37:35;94598.56;;;25.84;34.16
77723;BME280;67811;42.656;23.394;2023-04-24T09:40:18;94594.88;;;25.75;34.44
77723;BME280;67811;42.656;23.394;2023-04-24T09:42:55;94596.56;;;25.90;34.55
77723;BME280;67811;42.656;23.394;2023-04-24T09:45:21;94596.56;;;26.09;34.20
77723;BME280;67811;42.656;23.394;2023-04-24T09:47:51;94589.94;;;26.34;34.11
77723;BME280;67811;42.656;23.394;2023-04-24T09:50:17;94589.06;;;26.57;33.46
77723;BME280;67811;42.656;23.394;2023-04-24T09:52:43;94575.22;;;26.72;33.43
77723;BME280;67811;42.656;23.394;2023-04-24T09:55:18;94579.22;;;26.75;33.95
77723;BME280;67811;42.656;23.394;2023-04-24T10:00:22;94571.66;;;27.04;33.24
77723;BME280;67811;42.656;23.394;2023-04-24T10:02:54;94577.13;;;27.18;33.26
77723;BME280;67811;42.656;23.394;2023-04-24T10:05:23;94575.22;;;27.33;33.19
77723;BME280;67811;42.656;23.394;2023-04-24T10:07:48;94567.53;;;27.35;33.02
77723;BME280;67811;42.656;23.394;2023-04-24T10:10:14;94565.66;;;27.21;33.15
77723;BME280;67811;42.656;23.394;2023-04-24T10:12:40;94566.97;;;26.91;33.27
77723;BME280;67811;42.656;23.394;2023-04-24T10:15:06;94558.59;;;26.74;33.48
77723;BME280;67811;42.656;23.394;2023-04-24T10:17:32;94567.22;;;26.62;33.91
77723;BME280;67811;42.656;23.394;2023-04-24T10:19:58;94557.91;;;26.82;33.97
77723;BME280;67811;42.656;23.394;2023-04-24T10:22:25;94544.13;;;27.06;33.98
77723;BME280;67811;42.656;23.394;2023-04-24T10:24:52;94542.47;;;27.10;33.78
77723;BME280;67811;42.656;23.394;2023-04-24T10:27:17;94540.13;;;27.03;34.14
77723;BME280;67811;42.656;23.394;2023-04-24T10:29:47;94530.47;;;27.11;33.94
77723;BME280;67811;42.656;23.394;2023-04-24T10:32:12;94535.63;;;27.26;33.83
77723;BME280;67811;42.656;23.394;2023-04-24T10:34:38;94524.75;;;27.26;33.83
77723;BME280;67811;42.656;23.394;2023-04-24T10:37:03;94525.94;;;27.34;32.91
77723;BME280;67811;42.656;23.394;2023-04-24T10:39:29;94526.53;;;27.45;33.42
77723;BME280;67811;42.656;23.394;2023-04-24T10:41:55;94530.16;;;27.54;33.12
77723;BME280;67811;42.656;23.394;2023-04-24T10:44:22;94524.78;;;27.63;32.65
77723;BME280;67811;42.656;23.394;2023-04-24T10:46:47;94515.63;;;27.58;31.90
77723;BME280;67811;42.656;23.394;2023-04-24T10:49:27;94519.03;;;27.64;32.22
77723;BME280;67811;42.656;23.394;2023-04-24T10:51:54;94510.25;;;27.67;32.12
77723;BME280;67811;42.656;23.394;2023-04-24T10:56:51;94500.75;;;26.87;32.29
77723;BME280;67811;42.656;23.394;2023-04-24T10:59:27;94501.13;;;26.80;32.32
77723;BME280;67811;42.656;23.394;2023-04-24T11:01:53;94492.25;;;26.75;30.24
77723;BME280;67811;42.656;23.394;2023-04-24T11:04:29;94498.56;;;26.43;30.47
77723;BME280;67811;42.656;23.394;2023-04-24T11:06:55;94486.31;;;26.26;31.38
77723;BME280;67811;42.656;23.394;2023-04-24T11:09:20;94484.59;;;26.31;31.43
77723;BME280;67811;42.656;23.394;2023-04-24T11:11:47;94478.66;;;26.28;31.49
77723;BME280;67811;42.656;23.394;2023-04-24T11:14:15;94482.97;;;25.97;31.96
77723;BME280;67811;42.656;23.394;2023-04-24T11:19:17;94480.88;;;25.75;32.72
77723;BME280;67811;42.656;23.394;2023-04-24T11:21:46;94471.63;;;25.57;32.96
77723;BME280;67811;42.656;23.394;2023-04-24T11:24:36;94468.81;;;25.43;33.25
77723;BME280;67811;42.656;23.394;2023-04-24T11:27:14;94471.47;;;25.11;33.63
77723;BME280;67811;42.656;23.394;2023-04-24T11:32:33;94495.41;;;24.75;34.17
77723;BME280;67811;42.656;23.394;2023-04-24T11:35:04;94485.88;;;24.53;34.19
77723;BME280;67811;42.656;23.394;2023-04-24T11:37:35;94517.13;;;24.06;34.00
77723;BME280;67811;42.656;23.394;2023-04-24T11:40:00;94516.66;;;23.55;34.04
77723;BME280;67811;42.656;23.394;2023-04-24T11:42:26;94535.25;;;23.12;34.54
77723;BME280;67811;42.656;23.394;2023-04-24T11:44:53;94539.94;;;22.76;35.09
77723;BME280;67811;42.656;23.394;2023-04-24T11:47:18;94540.78;;;22.51;35.56
77723;BME280;67811;42.656;23.394;2023-04-24T11:49:44;94537.06;;;22.31;35.74
77723;BME280;67811;42.656;23.394;2023-04-24T11:52:09;94534.88;;;22.18;36.09
77723;BME280;67811;42.656;23.394;2023-04-24T11:54:35;94526.22;;;22.01;36.06
77723;BME280;67811;42.656;23.394;2023-04-24T11:57:04;94527.28;;;21.74;36.26
77723;BME280;67811;42.656;23.394;2023-04-24T11:59:29;94517.81;;;21.51;36.45
77723;BME280;67811;42.656;23.394;2023-04-24T12:01:54;94515.63;;;21.33;36.79
77723;BME280;67811;42.656;23.394;2023-04-24T12:04:20;94515.84;;;21.26;36.56
77723;BME280;67811;42.656;23.394;2023-04-24T12:07:02;94510.16;;;21.23;36.75
77723;BME280;67811;42.656;23.394;2023-04-24T12:09:27;94504.50;;;21.19;36.36
77723;BME280;67811;42.656;23.394;2023-04-24T12:11:54;94481.56;;;21.12;36.39
77723;BME280;67811;42.656;23.394;2023-04-24T12:14:19;94499.06;;;20.99;36.08
77723;BME280;67811;42.656;23.394;2023-04-24T12:16:48;94495.75;;;20.87;36.01
77723;BME280;67811;42.656;23.394;2023-04-24T12:19:18;94483.88;;;20.77;36.02
77723;BME280;67811;42.656;23.394;2023-04-24T12:21:43;94485.19;;;20.70;35.88
77723;BME280;67811;42.656;23.394;2023-04-24T12:24:09;94477.03;;;20.55;35.61
77723;BME280;67811;42.656;23.394;2023-04-24T12:26:34;94478.28;;;20.42;35.66
77723;BME280;67811;42.656;23.394;2023-04-24T12:29:01;94491.47;;;20.38;36.04
77723;BME280;67811;42.656;23.394;2023-04-24T12:31:26;94479.63;;;20.39;35.91
77723;BME280;67811;42.656;23.394;2023-04-24T12:33:52;94489.59;;;20.39;36.27
77723;BME280;67811;42.656;23.394;2023-04-24T12:36:17;94481.75;;;20.37;35.97
77723;BME280;67811;42.656;23.394;2023-04-24T12:38:44;94474.47;;;20.38;36.36
77723;BME280;67811;42.656;23.394;2023-04-24T12:41:13;94464.28;;;20.40;36.08
77723;BME280;67811;42.656;23.394;2023-04-24T12:43:50;94453.41;;;20.19;36.34
77723;BME280;67811;42.656;23.394;2023-04-24T12:46:16;94458.59;;;19.94;36.09
77723;BME280;67811;42.656;23.394;2023-04-24T12:48:41;94447.41;;;19.70;36.51
77723;BME280;67811;42.656;23.394;2023-04-24T12:51:07;94439.94;;;19.50;36.69
77723;BME280;67811;42.656;23.394;2023-04-24T12:53:32;94436.94;;;19.41;36.91
77723;BME280;67811;42.656;23.394;2023-04-24T12:55:57;94438.16;;;19.29;37.03
77723;BME280;67811;42.656;23.394;2023-04-24T12:58:23;94433.25;;;19.20;37.41